| time (UTC) | temp F | wind direction | speed knots | gust knots | rain 1hr in | rain 24hr in | rain mn in | humidity % | barometer mb |
| 20260508121626 | 51 | 252 | 0.9 | 1.7 | 0.00 | 0.05 | 0.00 | 65 | 1016.9 |
| 20260508121125 | 50 | 337 | 0.0 | 0.0 | 0.00 | 0.05 | 0.00 | 68 | 1016.8 |
| 20260508120625 | 49 | 313 | 0.0 | 0.9 | 0.00 | 0.07 | 0.00 | 71 | 1016.8 |
| 20260508120125 | 49 | 66 | 0.9 | 1.7 | 0.00 | 0.07 | 0.00 | 71 | 1016.8 |
| 20260508115624 | 48 | 65 | 0.0 | 0.0 | 0.00 | 0.07 | 0.00 | 73 | 1016.7 |
| 20260508115124 | 47 | 49 | 0.0 | 0.9 | 0.00 | 0.07 | 0.00 | 74 | 1016.7 |
| 20260508114626 | 46 | 74 | 0.0 | 0.0 | 0.00 | 0.07 | 0.00 | 73 | 1016.7 |
| 20260508114123 | 46 | 84 | 0.0 | 0.9 | 0.00 | 0.07 | 0.00 | 74 | 1016.7 |
| 20260508113623 | 45 | 0 | 0.0 | 0.0 | 0.00 | 0.07 | 0.00 | 73 | 1016.7 |
| 20260508113122 | 44 | 85 | 0.0 | 0.0 | 0.00 | 0.07 | 0.00 | 75 | 1016.6 |
| 20260508112622 | 43 | 312 | 0.0 | 0.9 | 0.00 | 0.07 | 0.00 | 77 | 1016.7 |
| 20260508112122 | 43 | 76 | 0.9 | 0.9 | 0.00 | 0.07 | 0.00 | 78 | 1016.8 |
| 20260508111621 | 43 | 10 | 0.0 | 0.0 | 0.00 | 0.07 | 0.00 | 77 | 1016.8 |
| 20260508111121 | 44 | 0 | 0.0 | 0.0 | 0.00 | 0.07 | 0.00 | 75 | 1016.7 |
| 20260508110620 | 44 | 308 | 1.7 | 1.7 | 0.00 | 0.07 | 0.00 | 72 | 1016.6 |
| 20260508110120 | 44 | 310 | 2.6 | 3.5 | 0.00 | 0.07 | 0.00 | 71 | 1016.6 |
| 20260508105620 | 44 | 291 | 2.6 | 3.5 | 0.00 | 0.07 | 0.00 | 72 | 1016.6 |
| 20260508105119 | 44 | 280 | 2.6 | 3.5 | 0.00 | 0.07 | 0.00 | 72 | 1016.6 |
| 20260508104619 | 44 | 293 | 3.5 | 3.5 | 0.00 | 0.07 | 0.00 | 72 | 1016.6 |
| 20260508104119 | 43 | 309 | 2.6 | 2.6 | 0.00 | 0.07 | 0.00 | 72 | 1016.7 |
| 20260508103618 | 43 | 314 | 3.5 | 3.5 | 0.00 | 0.07 | 0.00 | 72 | 1016.6 |
| 20260508103121 | 43 | 311 | 2.6 | 2.6 | 0.00 | 0.07 | 0.00 | 72 | 1016.6 |
| 20260508102618 | 43 | 313 | 2.6 | 3.5 | 0.00 | 0.07 | 0.00 | 72 | 1016.6 |
| 20260508102118 | 42 | 322 | 2.6 | 2.6 | 0.00 | 0.07 | 0.00 | 74 | 1016.7 |
| 20260508101839 | 43 | 296 | 1.7 | 1.7 | 0.00 | 0.03 | 0.00 | 74 | 1016.6 |
| 20260508101637 | 42 | 321 | 2.6 | 2.6 | 0.00 | 0.07 | 0.00 | 74 | 1016.6 |
| 20260508101117 | 42 | 306 | 2.6 | 3.5 | 0.00 | 0.07 | 0.00 | 75 | 1016.5 |
| 20260508100617 | 42 | 303 | 2.6 | 3.5 | 0.00 | 0.07 | 0.00 | 75 | 1016.5 |
| 20260508100116 | 42 | 306 | 2.6 | 2.6 | 0.00 | 0.07 | 0.00 | 75 | 1016.5 |
| 20260508095618 | 41 | 314 | 1.7 | 1.7 | 0.00 | 0.07 | 0.00 | 76 | 1016.4 |
| 20260508095115 | 40 | 298 | 1.7 | 1.7 | 0.00 | 0.07 | 0.00 | 79 | 1016.5 |
| 20260508094622 | 39 | 275 | 0.9 | 1.7 | 0.00 | 0.07 | 0.00 | 83 | 1016.5 |
| 20260508094115 | 39 | 251 | 0.9 | 0.9 | 0.00 | 0.07 | 0.00 | 84 | 1016.5 |
| 20260508093614 | 39 | 235 | 1.7 | 1.7 | 0.00 | 0.07 | 0.00 | 83 | 1016.5 |
| 20260508093114 | 39 | 246 | 0.9 | 0.9 | 0.00 | 0.07 | 0.00 | 84 | 1016.5 |
| 20260508092614 | 38 | 247 | 0.9 | 0.9 | 0.00 | 0.07 | 0.00 | 86 | 1016.6 |
| 20260508092113 | 39 | 237 | 0.9 | 0.9 | 0.00 | 0.09 | 0.00 | 86 | 1016.5 |
| 20260508091613 | 39 | 258 | 0.0 | 0.9 | 0.00 | 0.09 | 0.00 | 85 | 1016.5 |
| 20260508091113 | 39 | 238 | 0.9 | 0.9 | 0.00 | 0.09 | 0.00 | 85 | 1016.5 |
| 20260508090612 | 39 | 235 | 0.9 | 0.9 | 0.00 | 0.09 | 0.00 | 85 | 1016.5 |
| 20260508090116 | 39 | 284 | 0.0 | 0.0 | 0.00 | 0.09 | 0.00 | 85 | 1016.5 |
| 20260508085612 | 39 | 279 | 0.9 | 0.9 | 0.00 | 0.09 | 0.00 | 86 | 1016.4 |
| 20260508085111 | 38 | 286 | 0.9 | 0.9 | 0.00 | 0.11 | 0.00 | 87 | 1016.4 |
| 20260508084611 | 39 | 257 | 0.0 | 0.9 | 0.00 | 0.11 | 0.00 | 87 | 1016.5 |
| 20260508084111 | 38 | 254 | 0.0 | 0.9 | 0.00 | 0.11 | 0.00 | 87 | 1016.3 |
| 20260508083610 | 38 | 226 | 0.9 | 1.7 | 0.00 | 0.12 | 0.00 | 90 | 1016.4 |
| 20260508083110 | 38 | 293 | 0.0 | 0.9 | 0.00 | 0.12 | 0.00 | 89 | 1016.5 |
| 20260508082609 | 38 | 278 | 0.9 | 1.7 | 0.00 | 0.12 | 0.00 | 89 | 1016.5 |
| 20260508082109 | 38 | 266 | 0.9 | 0.9 | 0.00 | 0.12 | 0.00 | 89 | 1016.4 |
| 20260508081609 | 39 | 283 | 0.9 | 0.9 | 0.00 | 0.12 | 0.00 | 88 | 1016.4 |
| 20260508081109 | 39 | 291 | 0.9 | 0.9 | 0.00 | 0.12 | 0.00 | 87 | 1016.3 |
| 20260508080608 | 39 | 179 | 0.0 | 1.7 | 0.00 | 0.12 | 0.00 | 87 | 1016.3 |
| 20260508080108 | 39 | 253 | 0.0 | 0.9 | 0.00 | 0.12 | 0.00 | 86 | 1016.3 |
| 20260508075607 | 40 | 344 | 0.0 | 0.9 | 0.00 | 0.12 | 0.00 | 85 | 1016.3 |
| 20260508075107 | 39 | 203 | 0.0 | 0.9 | 0.00 | 0.12 | 0.00 | 84 | 1016.2 |
| 20260508074607 | 39 | 0 | 0.0 | 0.0 | 0.00 | 0.12 | 0.00 | 87 | 1016.3 |
| 20260508074107 | 39 | 231 | 0.0 | 0.9 | 0.00 | 0.12 | 0.00 | 86 | 1016.3 |
| 20260508073606 | 40 | 280 | 0.0 | 0.0 | 0.00 | 0.12 | 0.00 | 86 | 1016.3 |
| 20260508073106 | 40 | 234 | 0.0 | 0.9 | 0.00 | 0.12 | 0.00 | 86 | 1016.3 |
| 20260508072622 | 40 | 313 | 0.0 | 0.9 | 0.00 | 0.12 | 0.00 | 84 | 1016.2 |
| 20260508072106 | 40 | 242 | 1.7 | 3.5 | 0.00 | 0.12 | 0.00 | 85 | 1016.0 |
| 20260508071625 | 40 | 251 | 0.0 | 0.9 | 0.00 | 0.12 | 0.00 | 85 | 1016.0 |
| 20260508071104 | 40 | 323 | 0.0 | 0.9 | 0.00 | 0.12 | 0.00 | 85 | 1016.0 |
| 20260508070624 | 41 | 0 | 0.0 | 0.0 | 0.00 | 0.12 | 0.00 | 85 | 1016.1 |
| 20260508070104 | 41 | 0 | 0.0 | 0.0 | 0.00 | 0.12 | 0.00 | 84 | 1016.0 |
| 20260508065603 | 42 | 0 | 0.0 | 0.0 | 0.00 | 0.12 | 0.00 | 83 | 1016.2 |
| 20260508065103 | 41 | 244 | 1.7 | 2.6 | 0.00 | 0.12 | 0.00 | 83 | 1016.1 |
| 20260508064622 | 41 | 249 | 0.9 | 1.7 | 0.00 | 0.12 | 0.00 | 85 | 1016.0 |
| 20260508064107 | 41 | 237 | 0.9 | 1.7 | 0.00 | 0.12 | 0.00 | 87 | 1016.0 |
| 20260508063601 | 41 | 283 | 0.0 | 0.9 | 0.00 | 0.12 | 0.00 | 86 | 1016.0 |
| 20260508063101 | 42 | 263 | 0.9 | 2.6 | 0.00 | 0.12 | 0.00 | 86 | 1016.0 |
| 20260508062621 | 42 | 299 | 0.9 | 0.9 | 0.00 | 0.12 | 0.00 | 86 | 1016.1 |
| 20260508062100 | 42 | 207 | 0.0 | 1.7 | 0.00 | 0.12 | 0.00 | 86 | 1016.1 |
| 20260508061600 | 42 | 290 | 0.9 | 1.7 | 0.00 | 0.12 | 0.00 | 87 | 1016.1 |
| 20260508061104 | 42 | 216 | 0.0 | 0.9 | 0.00 | 0.12 | 0.00 | 85 | 1016.2 |
| 20260508060559 | 43 | 307 | 0.0 | 0.9 | 0.00 | 0.12 | 0.00 | 84 | 1016.3 |
| 20260508060059 | 44 | 0 | 0.0 | 0.0 | 0.00 | 0.12 | 0.00 | 83 | 1016.3 |
| 20260508055558 | 44 | 187 | 0.9 | 1.7 | 0.00 | 0.12 | 0.00 | 82 | 1016.2 |
| 20260508055058 | 45 | 222 | 0.0 | 0.9 | 0.00 | 0.12 | 0.00 | 79 | 1016.3 |
| 20260508054557 | 46 | 209 | 0.0 | 0.9 | 0.00 | 0.12 | 0.00 | 77 | 1016.2 |
| 20260508054057 | 46 | 202 | 0.0 | 0.0 | 0.00 | 0.12 | 0.00 | 76 | 1016.2 |
| 20260508053557 | 46 | 286 | 1.7 | 1.7 | 0.00 | 0.12 | 0.00 | 77 | 1016.1 |
| 20260508053056 | 45 | 258 | 1.7 | 1.7 | 0.00 | 0.12 | 0.00 | 76 | 1016.0 |
| 20260508052557 | 45 | 247 | 1.7 | 1.7 | 0.00 | 0.12 | 0.00 | 77 | 1016.0 |
| 20260508052055 | 45 | 302 | 0.9 | 2.6 | 0.00 | 0.12 | 0.00 | 81 | 1016.1 |
| 20260508051608 | 45 | 208 | 1.7 | 1.7 | 0.00 | 0.12 | 0.00 | 79 | 1015.8 |
| 20260508051054 | 45 | 231 | 1.7 | 1.7 | 0.00 | 0.12 | 0.00 | 82 | 1015.8 |
| 20260508050604 | 45 | 247 | 0.9 | 1.7 | 0.00 | 0.12 | 0.00 | 81 | 1015.7 |
| 20260508050054 | 45 | 216 | 1.7 | 2.6 | 0.00 | 0.12 | 0.00 | 81 | 1015.6 |
| 20260508045553 | 45 | 271 | 0.9 | 1.7 | 0.00 | 0.12 | 0.00 | 82 | 1015.6 |
| 20260508045100 | 45 | 253 | 0.9 | 1.7 | 0.00 | 0.13 | 0.00 | 82 | 1015.5 |
| 20260508044552 | 45 | 262 | 0.9 | 1.7 | 0.00 | 0.13 | 0.00 | 81 | 1015.4 |
| 20260508044056 | 45 | 213 | 0.9 | 1.7 | 0.00 | 0.13 | 0.00 | 84 | 1015.4 |
| 20260508043557 | 45 | 0 | 0.0 | 0.9 | 0.00 | 0.13 | 0.00 | 83 | 1015.4 |
| 20260508043051 | 46 | 257 | 0.9 | 0.9 | 0.00 | 0.13 | 0.00 | 81 | 1015.3 |
| 20260508042556 | 46 | 277 | 0.9 | 1.7 | 0.00 | 0.13 | 0.00 | 81 | 1015.4 |
| 20260508042058 | 47 | 275 | 0.0 | 0.9 | 0.00 | 0.13 | 0.00 | 80 | 1015.3 |
| 20260508041550 | 47 | 222 | 1.7 | 1.7 | 0.00 | 0.13 | 0.00 | 78 | 1015.3 |
| 20260508041100 | 47 | 217 | 0.9 | 1.7 | 0.00 | 0.55 | 0.00 | 78 | 1015.3 |
| 20260508040610 | 48 | 232 | 0.0 | 1.7 | 0.00 | 0.55 | 0.00 | 76 | 1015.2 |
| 20260508040049 | 49 | 219 | 1.7 | 1.7 | 0.00 | 0.58 | 0.03 | 74 | 1015.1 |
| 20260508035602 | 49 | 207 | 0.9 | 2.6 | 0.00 | 0.58 | 0.03 | 73 | 1015.1 |
| 20260508035056 | 49 | 243 | 0.9 | 1.7 | 0.00 | 0.58 | 0.03 | 74 | 1015.1 |
| 20260508034548 | 49 | 233 | 1.7 | 2.6 | 0.00 | 0.58 | 0.03 | 73 | 1015.0 |
| 20260508034048 | 50 | 243 | 1.7 | 2.6 | 0.00 | 0.58 | 0.03 | 73 | 1014.9 |
| 20260508033548 | 50 | 204 | 0.9 | 1.7 | 0.00 | 0.58 | 0.03 | 72 | 1014.9 |
| 20260508033047 | 50 | 262 | 1.7 | 3.5 | 0.00 | 0.58 | 0.03 | 71 | 1014.8 |
| 20260508032547 | 50 | 279 | 2.6 | 3.5 | 0.00 | 0.58 | 0.03 | 71 | 1014.9 |
| 20260508032046 | 51 | 286 | 3.5 | 5.2 | 0.00 | 0.68 | 0.03 | 71 | 1014.9 |
| 20260508031546 | 51 | 254 | 1.7 | 3.5 | 0.00 | 0.68 | 0.03 | 71 | 1014.9 |
| 20260508031046 | 51 | 267 | 2.6 | 3.5 | 0.00 | 0.68 | 0.03 | 71 | 1014.9 |
| 20260508030545 | 51 | 286 | 2.6 | 4.3 | 0.00 | 0.68 | 0.03 | 70 | 1014.8 |
| 20260508030045 | 51 | 262 | 1.7 | 2.6 | 0.00 | 0.69 | 0.03 | 70 | 1014.7 |
| 20260508025545 | 51 | 274 | 1.7 | 3.5 | 0.00 | 0.69 | 0.03 | 70 | 1014.6 |
| 20260508025044 | 52 | 287 | 2.6 | 4.3 | 0.00 | 0.69 | 0.03 | 70 | 1014.6 |
| 20260508024544 | 52 | 271 | 1.7 | 4.3 | 0.00 | 0.69 | 0.03 | 69 | 1014.5 |
| 20260508024050 | 52 | 288 | 3.5 | 4.3 | 0.00 | 0.69 | 0.03 | 69 | 1014.4 |
| 20260508023603 | 52 | 290 | 3.5 | 7.0 | 0.00 | 0.69 | 0.03 | 69 | 1014.4 |
| 20260508023050 | 52 | 283 | 2.6 | 3.5 | 0.00 | 0.69 | 0.03 | 69 | 1014.3 |
| 20260508022542 | 52 | 301 | 4.3 | 6.1 | 0.00 | 1.23 | 0.03 | 69 | 1014.3 |
| 20260508022042 | 52 | 277 | 1.7 | 3.5 | 0.00 | 1.25 | 0.03 | 70 | 1014.3 |
| 20260508021601 | 52 | 289 | 2.6 | 3.5 | 0.00 | 1.25 | 0.03 | 69 | 1014.3 |
| 20260508021041 | 52 | 294 | 3.5 | 5.2 | 0.00 | 1.25 | 0.03 | 69 | 1014.0 |
| 20260508020540 | 52 | 288 | 2.6 | 5.2 | 0.00 | 1.26 | 0.03 | 69 | 1014.0 |
| 20260508020040 | 52 | 300 | 1.7 | 2.6 | 0.00 | 1.26 | 0.03 | 69 | 1013.9 |
| 20260508015539 | 52 | 290 | 2.6 | 4.3 | 0.00 | 1.27 | 0.03 | 69 | 1013.9 |
| 20260508015039 | 53 | 269 | 3.5 | 4.3 | 0.00 | 1.80 | 0.03 | 68 | 1013.7 |
| 20260508014539 | 53 | 284 | 3.5 | 7.8 | 0.00 | 1.83 | 0.03 | 68 | 1013.6 |
| 20260508014058 | 53 | 282 | 2.6 | 5.2 | 0.00 | 1.85 | 0.03 | 68 | 1013.5 |
| 20260508013558 | 53 | 310 | 3.5 | 7.0 | 0.00 | 2.34 | 0.03 | 67 | 1013.3 |
| 20260508013044 | 53 | 310 | 3.5 | 7.8 | 0.00 | 2.38 | 0.03 | 67 | 1013.2 |
| 20260508012537 | 53 | 305 | 5.2 | 8.7 | 0.00 | 2.41 | 0.03 | 68 | 1013.1 |
| 20260508012057 | 53 | 290 | 3.5 | 6.1 | 0.00 | 2.41 | 0.03 | 68 | 1013.1 |
| 20260508011536 | 53 | 284 | 3.5 | 6.1 | 0.00 | 2.43 | 0.03 | 67 | 1013.1 |
| 20260508011041 | 53 | 269 | 4.3 | 7.0 | 0.00 | 2.44 | 0.03 | 67 | 1013.0 |
| 20260508010535 | 53 | 287 | 1.7 | 4.3 | 0.00 | 2.46 | 0.03 | 67 | 1013.0 |
| 20260508010035 | 53 | 265 | 1.7 | 4.3 | 0.00 | 2.47 | 0.03 | 68 | 1013.0 |
| 20260508005534 | 53 | 299 | 3.5 | 5.2 | 0.00 | 2.47 | 0.03 | 67 | 1012.9 |
| 20260508005035 | 53 | 287 | 3.5 | 5.2 | 0.00 | 2.47 | 0.03 | 67 | 1012.9 |
| 20260508004534 | 53 | 258 | 4.3 | 7.0 | 0.00 | 2.47 | 0.03 | 67 | 1012.9 |
| 20260508004034 | 53 | 285 | 2.6 | 4.3 | 0.00 | 2.47 | 0.03 | 67 | 1012.9 |
| 20260508003547 | 54 | 313 | 2.6 | 5.2 | 0.00 | 2.47 | 0.03 | 67 | 1012.9 |
| 20260508003033 | 54 | 270 | 2.6 | 5.2 | 0.00 | 2.47 | 0.03 | 67 | 1012.9 |
| 20260508002532 | 54 | 290 | 5.2 | 9.6 | 0.00 | 2.47 | 0.03 | 67 | 1012.9 |
| 20260508002032 | 54 | 318 | 4.3 | 7.8 | 0.00 | 2.47 | 0.03 | 67 | 1012.9 |
| 20260508001532 | 54 | 289 | 4.3 | 5.2 | 0.00 | 2.47 | 0.03 | 66 | 1013.0 |
| 20260508001051 | 54 | 290 | 4.3 | 7.0 | 0.00 | 2.47 | 0.03 | 65 | 1012.9 |
| 20260508000531 | 55 | 281 | 4.3 | 7.0 | 0.00 | 2.47 | 0.03 | 65 | 1012.8 |
| 20260508000050 | 55 | 278 | 4.3 | 8.7 | 0.00 | 2.47 | 0.03 | 65 | 1012.5 |
| 20260507235550 | 55 | 299 | 1.7 | 3.5 | 0.00 | 2.47 | 0.03 | 64 | 1012.7 |
| 20260507235042 | 55 | 316 | 4.3 | 7.8 | 0.00 | 2.47 | 0.03 | 64 | 1012.5 |
| 20260507234549 | 56 | 278 | 4.3 | 7.0 | 0.00 | 2.47 | 0.03 | 63 | 1012.5 |
| 20260507234049 | 56 | 274 | 1.7 | 3.5 | 0.00 | 2.47 | 0.03 | 63 | 1012.7 |
| 20260507233548 | 56 | 288 | 3.5 | 6.1 | 0.00 | 2.47 | 0.03 | 61 | 1012.5 |
| 20260507233048 | 57 | 285 | 6.1 | 7.8 | 0.00 | 2.47 | 0.03 | 60 | 1012.4 |
| 20260507232545 | 57 | 262 | 3.5 | 7.0 | 0.00 | 2.47 | 0.03 | 59 | 1012.4 |
| 20260507232047 | 57 | 296 | 7.0 | 9.6 | 0.00 | 2.47 | 0.03 | 59 | 1012.4 |
| 20260507231527 | 58 | 293 | 7.8 | 13.0 | 0.00 | 2.47 | 0.03 | 59 | 1012.2 |
| 20260507231026 | 58 | 284 | 1.7 | 3.5 | 0.00 | 2.47 | 0.03 | 60 | 1012.3 |
| 20260507230526 | 58 | 299 | 3.5 | 5.2 | 0.00 | 2.47 | 0.03 | 59 | 1012.3 |
| 20260507230029 | 58 | 301 | 6.1 | 9.6 | 0.00 | 2.47 | 0.03 | 59 | 1012.1 |
| 20260507225525 | 58 | 306 | 3.5 | 5.2 | 0.00 | 2.47 | 0.03 | 60 | 1012.1 |
| 20260507225024 | 58 | 277 | 7.0 | 9.6 | 0.00 | 2.47 | 0.03 | 60 | 1012.0 |
| 20260507224524 | 58 | 291 | 6.1 | 10.4 | 0.00 | 2.47 | 0.03 | 60 | 1012.0 |
| 20260507224024 | 58 | 295 | 7.0 | 7.8 | 0.00 | 2.47 | 0.03 | 59 | 1012.0 |
| 20260507223528 | 58 | 325 | 1.7 | 5.2 | 0.00 | 2.47 | 0.03 | 60 | 1012.1 |
| 20260507223043 | 59 | 305 | 4.3 | 7.8 | 0.00 | 2.47 | 0.03 | 60 | 1012.1 |
| 20260507222530 | 59 | 0 | 4.3 | 6.1 | 0.00 | 2.47 | 0.03 | 60 | 1011.9 |
| 20260507222042 | 59 | 291 | 5.2 | 9.6 | 0.00 | 2.47 | 0.03 | 59 | 1011.9 |
| 20260507221542 | 59 | 312 | 5.2 | 7.8 | 0.00 | 2.47 | 0.03 | 59 | 1011.9 |
| 20260507221022 | 59 | 290 | 7.0 | 8.7 | 0.00 | 2.47 | 0.03 | 59 | 1011.8 |
| 20260507220521 | 58 | 324 | 4.3 | 7.8 | 0.00 | 2.47 | 0.03 | 60 | 1011.8 |
| 20260507220021 | 58 | 284 | 7.0 | 9.6 | 0.00 | 2.47 | 0.03 | 59 | 1011.9 |
| 20260507215520 | 59 | 264 | 4.3 | 7.0 | 0.00 | 2.47 | 0.03 | 60 | 1011.9 |
| 20260507215020 | 59 | 291 | 7.0 | 9.6 | 0.00 | 2.47 | 0.03 | 59 | 1011.8 |
| 20260507214540 | 59 | 287 | 3.5 | 7.8 | 0.00 | 2.47 | 0.03 | 59 | 1011.7 |
| 20260507214039 | 59 | 302 | 4.3 | 7.0 | 0.00 | 2.47 | 0.03 | 60 | 1011.6 |
| 20260507213522 | 60 | 312 | 3.5 | 7.8 | 0.00 | 2.47 | 0.03 | 61 | 1011.8 |
| 20260507213023 | 60 | 280 | 4.3 | 6.1 | 0.00 | 2.47 | 0.03 | 60 | 1011.4 |
| 20260507212519 | 60 | 343 | 3.5 | 7.0 | 0.00 | 2.47 | 0.03 | 61 | 1011.4 |
| 20260507212038 | 59 | 298 | 3.5 | 7.8 | 0.00 | 2.47 | 0.03 | 64 | 1011.2 |
| 20260507211537 | 59 | 292 | 5.2 | 8.7 | 0.00 | 2.47 | 0.03 | 64 | 1011.2 |
| 20260507211017 | 58 | 312 | 3.5 | 7.8 | 0.00 | 2.47 | 0.03 | 66 | 1011.0 |
| 20260507210537 | 58 | 313 | 2.6 | 6.1 | 0.00 | 2.47 | 0.03 | 68 | 1011.3 |
| 20260507210036 | 58 | 325 | 3.5 | 10.4 | 0.00 | 2.47 | 0.03 | 66 | 1011.3 |
| 20260507205516 | 58 | 317 | 4.3 | 8.7 | 0.00 | 2.47 | 0.03 | 65 | 1011.4 |
| 20260507205035 | 58 | 311 | 2.6 | 5.2 | 0.00 | 2.47 | 0.03 | 67 | 1011.4 |
| 20260507204535 | 58 | 288 | 6.1 | 8.7 | 0.00 | 2.47 | 0.03 | 67 | 1011.4 |
| 20260507204028 | 59 | 280 | 2.6 | 4.3 | 0.00 | 2.47 | 0.03 | 67 | 1011.3 |
| 20260507203521 | 58 | 331 | 1.7 | 4.3 | 0.00 | 2.47 | 0.03 | 68 | 1011.4 |
| 20260507203035 | 59 | 271 | 5.2 | 8.7 | 0.00 | 2.47 | 0.03 | 66 | 1011.3 |
| 20260507202513 | 59 | 290 | 5.2 | 7.0 | 0.00 | 2.47 | 0.03 | 68 | 1011.4 |
| 20260507202012 | 59 | 28 | 2.6 | 5.2 | 0.00 | 2.47 | 0.03 | 69 | 1011.1 |
| 20260507201532 | 59 | 321 | 2.6 | 6.1 | 0.00 | 2.47 | 0.03 | 69 | 1011.2 |
| 20260507201031 | 60 | 293 | 4.3 | 7.8 | 0.00 | 2.47 | 0.03 | 69 | 1011.2 |
| 20260507200531 | 61 | 285 | 2.6 | 6.1 | 0.00 | 2.47 | 0.03 | 68 | 1011.0 |
| 20260507200030 | 59 | 248 | 3.5 | 6.1 | 0.00 | 2.47 | 0.03 | 68 | 1010.7 |
| 20260507195530 | 59 | 309 | 4.3 | 6.1 | 0.00 | 2.47 | 0.03 | 69 | 1010.8 |
| 20260507195009 | 59 | 309 | 4.3 | 6.1 | 0.00 | 2.47 | 0.03 | 69 | 1010.8 |
| 20260507194516 | 58 | 40 | 2.6 | 4.3 | 0.00 | 2.47 | 0.03 | 71 | 1010.8 |
| 20260507194009 | 57 | 222 | 3.5 | 6.1 | 0.00 | 2.47 | 0.03 | 71 | 1010.8 |
| 20260507193518 | 56 | 264 | 2.6 | 3.5 | 0.00 | 2.47 | 0.03 | 74 | 1011.2 |
| 20260507193008 | 56 | 349 | 1.7 | 2.6 | 0.00 | 2.47 | 0.03 | 74 | 1011.6 |
| 20260507192527 | 56 | 288 | 5.2 | 7.0 | 0.00 | 2.47 | 0.03 | 73 | 1011.8 |
| 20260507192012 | 56 | 357 | 0.9 | 2.6 | 0.00 | 2.47 | 0.03 | 74 | 1011.8 |
| 20260507191508 | 56 | 244 | 2.6 | 4.3 | 0.00 | 2.47 | 0.03 | 73 | 1012.0 |
| 20260507191026 | 56 | 258 | 1.7 | 3.5 | 0.00 | 2.47 | 0.03 | 73 | 1012.0 |
| 20260507190506 | 56 | 2 | 0.9 | 3.5 | 0.00 | 2.47 | 0.03 | 74 | 1011.9 |
| 20260507190019 | 56 | 64 | 0.9 | 1.7 | 0.00 | 2.47 | 0.03 | 75 | 1012.0 |
| 20260507185505 | 56 | 52 | 0.0 | 1.7 | 0.00 | 2.47 | 0.03 | 75 | 1012.0 |
| 20260507185005 | 56 | 269 | 1.7 | 3.5 | 0.00 | 2.47 | 0.03 | 76 | 1012.2 |
| 20260507184504 | 56 | 51 | 1.7 | 3.5 | 0.00 | 2.47 | 0.03 | 75 | 1012.1 |
| 20260507184024 | 55 | 261 | 1.7 | 4.3 | 0.00 | 2.47 | 0.03 | 76 | 1012.2 |
| 20260507183523 | 55 | 325 | 0.9 | 1.7 | 0.00 | 2.47 | 0.03 | 77 | 1012.4 |
| 20260507183005 | 56 | 318 | 3.5 | 5.2 | 0.00 | 2.47 | 0.03 | 75 | 1012.3 |
| 20260507182503 | 56 | 294 | 4.3 | 9.6 | 0.00 | 2.47 | 0.03 | 76 | 1012.3 |
| 20260507182002 | 56 | 35 | 1.7 | 2.6 | 0.00 | 2.47 | 0.03 | 77 | 1012.2 |
| 20260507181502 | 55 | 306 | 1.7 | 4.3 | 0.00 | 2.47 | 0.03 | 76 | 1012.1 |
| 20260507181001 | 55 | 39 | 1.7 | 3.5 | 0.00 | 2.47 | 0.03 | 76 | 1012.3 |
| 20260507180501 | 55 | 43 | 2.6 | 4.3 | 0.00 | 2.47 | 0.03 | 77 | 1012.3 |
| 20260507180006 | 56 | 50 | 3.5 | 7.8 | 0.00 | 2.47 | 0.03 | 76 | 1012.1 |
| 20260507175502 | 56 | 285 | 1.7 | 2.6 | 0.00 | 2.47 | 0.03 | 76 | 1012.2 |
| 20260507175000 | 56 | 24 | 1.7 | 4.3 | 0.00 | 2.47 | 0.03 | 75 | 1012.2 |
| 20260507174459 | 56 | 294 | 0.9 | 2.6 | 0.00 | 2.47 | 0.03 | 75 | 1012.1 |
| 20260507174019 | 56 | 315 | 3.5 | 7.0 | 0.00 | 2.47 | 0.03 | 73 | 1011.9 |
| 20260507173506 | 55 | 42 | 3.5 | 5.2 | 0.00 | 2.47 | 0.03 | 75 | 1011.7 |
| 20260507172958 | 55 | 307 | 4.3 | 8.7 | 0.00 | 2.47 | 0.03 | 76 | 1011.8 |
| 20260507172518 | 54 | 352 | 1.7 | 3.5 | 0.00 | 2.47 | 0.03 | 79 | 1012.0 |
| 20260507171958 | 53 | 16 | 1.7 | 3.5 | 0.00 | 2.83 | 0.03 | 79 | 1012.3 |
| 20260507171517 | 53 | 292 | 5.2 | 7.8 | 0.00 | 2.83 | 0.03 | 76 | 1012.3 |
| 20260507170957 | 53 | 331 | 1.7 | 4.3 | 0.00 | 2.83 | 0.03 | 78 | 1012.4 |
| 20260507170504 | 53 | 39 | 1.7 | 3.5 | 0.00 | 2.84 | 0.03 | 78 | 1012.2 |
| 20260507165956 | 52 | 325 | 1.7 | 3.5 | 0.00 | 2.84 | 0.03 | 79 | 1012.4 |
| 20260507165516 | 52 | 13 | 1.7 | 3.5 | 0.00 | 2.84 | 0.03 | 79 | 1012.5 |
| 20260507164955 | 52 | 304 | 6.1 | 8.7 | 0.00 | 2.84 | 0.03 | 78 | 1012.7 |
| 20260507164515 | 52 | 301 | 5.2 | 7.8 | 0.00 | 2.84 | 0.03 | 79 | 1012.7 |
| 20260507163955 | 53 | 315 | 2.6 | 5.2 | 0.00 | 2.84 | 0.03 | 80 | 1012.5 |
| 20260507163454 | 53 | 300 | 5.2 | 7.0 | 0.00 | 2.85 | 0.03 | 79 | 1012.4 |
| 20260507162954 | 53 | 328 | 3.5 | 5.2 | 0.00 | 2.85 | 0.03 | 80 | 1012.4 |
| 20260507162453 | 52 | 23 | 1.7 | 3.5 | 0.00 | 2.85 | 0.03 | 82 | 1012.5 |
| 20260507161953 | 52 | 298 | 0.9 | 2.6 | 0.00 | 2.86 | 0.03 | 82 | 1012.5 |
| 20260507161453 | 51 | 10 | 0.9 | 1.7 | 0.00 | 2.86 | 0.03 | 81 | 1012.8 |
| 20260507160952 | 51 | 40 | 1.7 | 3.5 | 0.00 | 2.86 | 0.03 | 82 | 1012.5 |
| 20260507160452 | 52 | 308 | 4.3 | 7.0 | 0.00 | 2.86 | 0.03 | 81 | 1012.7 |
| 20260507160012 | 51 | 334 | 1.7 | 4.3 | 0.00 | 3.21 | 0.03 | 82 | 1012.5 |
| 20260507155512 | 51 | 299 | 5.2 | 6.1 | 0.00 | 3.21 | 0.03 | 83 | 1012.7 |
| 20260507154958 | 52 | 293 | 6.1 | 7.0 | 0.00 | 3.59 | 0.03 | 82 | 1012.8 |
| 20260507154451 | 52 | 296 | 3.5 | 4.3 | 0.00 | 3.59 | 0.03 | 83 | 1013.1 |
| 20260507153950 | 52 | 341 | 0.9 | 1.7 | 0.00 | 3.59 | 0.03 | 83 | 1013.1 |
| 20260507153450 | 52 | 303 | 1.7 | 4.3 | 0.01 | 3.59 | 0.03 | 83 | 1012.9 |
| 20260507152950 | 52 | 300 | 3.5 | 6.1 | 0.01 | 3.59 | 0.03 | 83 | 1013.0 |
| 20260507152451 | 52 | 40 | 0.9 | 1.7 | 0.01 | 3.77 | 0.03 | 83 | 1012.8 |
| 20260507151948 | 52 | 302 | 3.5 | 5.2 | 0.01 | 3.74 | 0.04 | 84 | 1012.7 |
| 20260507151448 | 52 | 304 | 3.5 | 6.1 | 0.01 | 3.74 | 0.04 | 85 | 1012.8 |
| 20260507150948 | 52 | 302 | 1.7 | 3.5 | 0.01 | 3.74 | 0.04 | 85 | 1013.0 |
| 20260507150447 | 52 | 347 | 1.7 | 2.6 | 0.01 | 3.74 | 0.04 | 85 | 1012.7 |
| 20260507145947 | 52 | 28 | 2.6 | 4.3 | 0.01 | 3.81 | 0.04 | 86 | 1012.7 |
| 20260507145447 | 52 | 4 | 1.7 | 2.6 | 0.01 | 3.81 | 0.04 | 89 | 1012.7 |
| 20260507144947 | 52 | 51 | 0.9 | 1.7 | 0.01 | 3.81 | 0.03 | 90 | 1012.9 |
| 20260507144446 | 51 | 21 | 0.9 | 1.7 | 0.01 | 3.81 | 0.03 | 90 | 1012.8 |
| 20260507143946 | 51 | 14 | 0.9 | 0.9 | 0.00 | 3.81 | 0.03 | 90 | 1012.7 |
| 20260507143505 | 52 | 6 | 0.9 | 1.7 | 0.00 | 3.80 | 0.02 | 90 | 1012.9 |
| 20260507143005 | 52 | 32 | 0.9 | 1.7 | 0.00 | 3.80 | 0.02 | 87 | 1013.0 |
| 20260507142505 | 52 | 237 | 1.7 | 2.6 | 0.00 | 3.80 | 0.02 | 86 | 1012.7 |
| 20260507142004 | 52 | 327 | 1.7 | 2.6 | 0.00 | 3.92 | 0.02 | 86 | 1012.3 |
| 20260507141503 | 52 | 39 | 2.6 | 3.5 | 0.00 | 3.92 | 0.02 | 87 | 1012.7 |
| 20260507140943 | 52 | 40 | 0.9 | 1.7 | 0.00 | 3.92 | 0.02 | 87 | 1012.4 |
| 20260507140443 | 52 | 303 | 2.6 | 5.2 | 0.00 | 3.96 | 0.02 | 86 | 1012.4 |
| 20260507135948 | 52 | 288 | 1.7 | 3.5 | 0.00 | 4.08 | 0.02 | 87 | 1012.4 |
| 20260507135449 | 52 | 352 | 1.7 | 3.5 | 0.00 | 4.09 | 0.02 | 88 | 1012.4 |
| 20260507134942 | 52 | 312 | 3.5 | 5.2 | 0.00 | 4.11 | 0.02 | 89 | 1012.4 |
| 20260507134446 | 52 | 6 | 1.7 | 2.6 | 0.00 | 4.11 | 0.02 | 89 | 1012.3 |
| 20260507134001 | 52 | 34 | 2.6 | 3.5 | 0.00 | 4.11 | 0.02 | 90 | 1012.3 |
| 20260507133500 | 52 | 12 | 1.7 | 1.7 | 0.00 | 4.12 | 0.02 | 92 | 1012.4 |
| 20260507132940 | 52 | 21 | 1.7 | 1.7 | 0.00 | 4.13 | 0.02 | 93 | 1012.8 |
| 20260507132459 | 52 | 13 | 0.9 | 1.7 | 0.00 | 4.13 | 0.02 | 93 | 1012.7 |
| 20260507131939 | 51 | 359 | 0.0 | 0.9 | 0.00 | 4.14 | 0.02 | 93 | 1012.9 |
| 20260507131439 | 52 | 29 | 1.7 | 1.7 | 0.00 | 4.14 | 0.02 | 93 | 1012.7 |
| 20260507130958 | 52 | 343 | 1.7 | 2.6 | 0.00 | 4.15 | 0.02 | 93 | 1012.9 |
| 20260507130438 | 52 | 0 | 1.7 | 1.7 | 0.00 | 4.17 | 0.02 | 94 | 1012.9 |
| 20260507125938 | 52 | 65 | 1.7 | 2.6 | 0.00 | 4.17 | 0.02 | 94 | 1012.9 |
| 20260507125437 | 52 | 48 | 0.9 | 1.7 | 0.00 | 4.17 | 0.02 | 94 | 1013.1 |
| 20260507124938 | 52 | 273 | 0.9 | 1.7 | 0.00 | 4.18 | 0.02 | 94 | 1013.2 |
| 20260507124436 | 52 | 0 | 0.0 | 0.0 | 0.00 | 4.18 | 0.02 | 94 | 1013.0 |
| 20260507123956 | 52 | 350 | 1.7 | 2.6 | 0.00 | 4.18 | 0.02 | 94 | 1013.0 |
| 20260507123436 | 52 | 18 | 0.9 | 0.9 | 0.00 | 4.19 | 0.02 | 94 | 1012.9 |
| 20260507122942 | 52 | 301 | 0.9 | 0.9 | 0.00 | 4.20 | 0.02 | 94 | 1012.9 |
| 20260507122435 | 52 | 80 | 0.9 | 1.7 | 0.00 | 4.20 | 0.02 | 95 | 1012.8 |
| 20260507121934 | 52 | 30 | 0.9 | 1.7 | 0.00 | 4.20 | 0.02 | 95 | 1012.8 |